Tiempo atmosférico en la estación meteorológica de San Roque, Cádiz (1 m.)



Fecha
DESCASC
Temp. máxima en grados centígrados (hora)
DESCASC
Temp. mínima en grados centígrados (hora)
DESCASC
Temp. media en grados centígrados
DESCASC
Racha de viento máxima en m/sg (hora)
DESCASC
Velocidad máxima media en intervalos de 10 minutos(hora)
DESCASC
Precipitaciones diarias en mm
DESCASC
Precipitaciones de 00:00 a 06:00 en mm
DESCASC
Precipitaciones de 06:00 a 12:00 en mm
DESCASC
Precipitaciones de 12:00 a 18:00 en mm
DESCASC
Precipitaciones de 18:00 a 24:00 en mm
DESCASC
11-12-2019 19.3 (15:20) 12.4 (23:00) 15.8 14.72 (12:30) 10 (12:30) 0 0 0 0 0
10-12-2019 21.4 (15:30) 7.2 (08:50) 14.3 8.33 (16:10) 5.83 (16:10) 0 0 0 0 0
09-12-2019 22 (13:40) 13.1 (23:30) 17.6 11.11 (04:00) 8.33 (04:00) 0 0 0 0 0
08-12-2019 20.7 (15:10) 7.6 (00:00) 14.2 9.44 (23:10) 6.39 (19:50) 0 0 0 0 0
07-12-2019 18.8 (14:40) 11.2 (00:00) 15 5.83 (01:40) 3.06 (23:59) 0 0 0 0 0
06-12-2019 18.7 (13:30) 14.3 (00:00) 16.5 11.39 (02:40) 8.89 (03:10) 0 0 0 0 0
05-12-2019 16 (13:40) 8.5 (00:00) 12.3 7.5 (17:20) 5.28 (19:10) 0 0 0 0 0
04-12-2019 17.8 (13:40) 10.9 (00:00) 14.3 11.39 (13:50) 7.22 (10:30) 0 0 0 0 0
03-12-2019 15.7 (16:40) 11.8 (00:00) 13.8 8.33 (02:30) 5 (02:40) 1.2 0.4 0.8 0 0
02-12-2019 14.3 (12:50) 10.6 (00:00) 12.5 8.89 (18:50) 5.28 (15:10) 31.2 0.4 6 19.6 5.2
01-12-2019 19.4 (15:00) 10 (00:00) 14.7 10.28 (15:00) 6.11 (12:50) 4.4 0.8 0 2.8 0.8
30-11-2019 21.4 (16:20) 9.8 (00:00) 15.6 9.44 (16:00) 6.11 (16:50) 0 0 0 0 0
29-11-2019 23.4 (16:30) 10.8 (00:00) 17.1 6.67 (02:10) 4.72 (02:20) 0 0 0 0 0
28-11-2019 21.9 (14:50) 11.8 (00:00) 16.8 9.44 (13:40) 6.11 (13:40) 0 0 0 0 0
27-11-2019 19.4 (16:30) 14.3 (00:00) 16.8 8.89 (14:10) 6.67 (14:10) 0.2 0 0.2 0 0
26-11-2019 22.1 (13:00) 15.2 (00:00) 18.7 9.44 (14:10) 6.11 (12:40) 0 0 0 0 0
25-11-2019 20.7 (16:00) 12.1 (00:00) 16.4 10.83 (13:30) 6.67 (13:40) 0 0 0 0 0
24-11-2019 18.3 (14:40) 9.4 (00:00) 13.8 11.67 (15:40) 7.5 (14:50) 0 0 0 0 0
23-11-2019 18.2 (15:20) 11.1 (00:00) 14.7 15.28 (09:10) 9.17 (07:10) 0 0 0 0 0
22-11-2019 18.9 (17:40) 13.6 (00:00) 16.3 18.61 (20:30) 11.11 (20:20) 48.6 16 18 1 13.6
21-11-2019 16.2 (15:20) 10.5 (00:00) 13.4 8.06 (16:00) 5 (08:20) 40.6 2.4 6.2 29.4 2.6
20-11-2019 13.7 (15:20) 7 (00:00) 10.3 11.67 (14:30) 5.56 (14:30) 5.4 0 0.4 5 0
19-11-2019 18.8 (14:00) 7.3 (00:00) 13 8.61 (17:10) 5 (17:10) 0 0 0 0 0
18-11-2019 17.1 (15:30) 10.2 (00:00) 13.7 15.28 (05:20) 8.61 (05:20) 2.8 2.8 0 0 0
17-11-2019 17.4 (15:40) 5.1 (00:00) 11.2 16.11 (15:40) 9.44 (16:00) 0.6 0 0 0 0.6
16-11-2019 17.1 (15:40) 6.5 (00:00) 11.8 11.11 (11:40) 6.94 (15:50) 0 0 0 0 0
15-11-2019 15.8 (14:40) 8.4 (00:00) 12.1 14.17 (10:00) 8.89 (10:10) 0 0 0 0 0

Gráficas

Temp. máximas Temp. mínimas Temp. medias Precipitaciones Rachas de viento máximas Velocidades máximas media en intervalos de 10 minutos

Datos horarios

Fecha y hora oficial Temperatura (ºC) Velocidad del viento (km/h) Dirección del viento Racha (km/h) Dirección de racha Precipitación (mm) Presión (hPa) Tendencia (hPa) Humedad (%)
2019-12-14 23:00:00 12.7 13 Oeste 28 Oeste 0 -- -- 77
2019-12-14 22:00:00 13 17 Oeste 32 Oeste 0 -- -- 75
2019-12-14 21:00:00 13.5 19 Oeste 31 Oeste 0 -- -- 70
2019-12-14 20:00:00 13.9 19 Oeste 30 Oeste 0 -- -- 67
2019-12-14 19:00:00 14.5 18 Oeste 31 Oeste 0 -- -- 66
2019-12-14 18:00:00 15.6 18 Oeste 36 Noroeste 0 -- -- 63
2019-12-14 17:00:00 17.3 22 Oeste 41 Oeste 0 -- -- 59
2019-12-14 16:00:00 18.3 22 Oeste 46 Oeste 0 -- -- 57
2019-12-14 15:00:00 18.7 24 Oeste 44 Oeste 0 -- -- 56
2019-12-14 14:00:00 18.6 18 Noroeste 37 Noroeste 0 -- -- 59
2019-12-14 13:00:00 18 22 Noroeste 46 Oeste 0 -- -- 59
2019-12-14 12:00:00 17.3 25 Oeste 43 Oeste 0 -- -- 63
2019-12-14 11:00:00 16.3 22 Oeste 40 Oeste 0 -- -- 68
2019-12-14 10:00:00 14.8 23 Oeste 37 Oeste 0 -- -- 74
2019-12-14 09:00:00 12.4 14 Oeste 35 Noroeste 0 -- -- 86
2019-12-14 08:00:00 13.3 18 Noroeste 36 Noroeste 0 -- -- 82
2019-12-14 07:00:00 11.9 15 Oeste 27 Oeste 0 -- -- 90
2019-12-14 06:00:00 12.4 19 Oeste 27 Oeste 0 -- -- 89
2019-12-14 05:00:00 12.8 17 Oeste 26 Oeste 0 -- -- 89
2019-12-14 04:00:00 13.2 19 Oeste 27 Oeste 0 -- -- 90
2019-12-14 03:00:00 13.9 13 Oeste 24 Noroeste 0 -- -- 87
2019-12-14 02:00:00 14.6 15 Oeste 27 Oeste 0 -- -- 86
2019-12-14 01:00:00 15.2 15 Oeste 30 Oeste 0 -- -- 85
2019-12-14 00:00:00 14.7 15 Oeste 23 Oeste 0 -- -- 87
2019-12-13 23:00:00 14.8 14 Oeste 27 Oeste 0 -- -- 86
2019-12-13 22:00:00 15.2 15 Oeste 24 Noroeste 0 -- -- 85
2019-12-13 21:00:00 15.2 14 Oeste 33 Oeste 0 -- -- 84
2019-12-13 20:00:00 15.5 18 Oeste 32 Oeste 0 -- -- 83
2019-12-13 19:00:00 15.8 14 Oeste 34 Sudoeste 0 -- -- 78
2019-12-13 18:00:00 16.8 14 Oeste 40 Oeste 0 -- -- 74
2019-12-13 17:00:00 18.3 22 Oeste 42 Oeste 0 -- -- 67
2019-12-13 16:00:00 18.5 24 Oeste 50 Oeste 0 -- -- 68
2019-12-13 15:00:00 18.7 24 Oeste 45 Oeste 0 -- -- 67
2019-12-13 14:00:00 18.2 22 Oeste 41 Sudoeste 0 -- -- 70
2019-12-13 13:00:00 17.6 19 Oeste 47 Oeste 0 -- -- 76
2019-12-13 12:00:00 17.4 21 Oeste 41 Oeste 0 -- -- 75
2019-12-13 11:00:00 17.2 20 Oeste 42 Oeste 0 -- -- 78
2019-12-13 10:00:00 16.4 22 Oeste 41 Oeste 0 -- -- 83
2019-12-13 09:00:00 15.5 26 Oeste 42 Oeste 0 -- -- 88
2019-12-13 08:00:00 15.2 19 Oeste 45 Noroeste 0 -- -- 90
2019-12-13 07:00:00 15.1 26 Oeste 49 Oeste 0 -- -- 90
2019-12-13 06:00:00 15.2 28 Oeste 48 Oeste 0 -- -- 90
2019-12-13 05:00:00 15.2 27 Oeste 50 Oeste 0 -- -- 88
2019-12-13 04:00:00 15 30 Oeste 47 Oeste 0 -- -- 88
2019-12-13 03:00:00 15.2 26 Oeste 42 Oeste 0 -- -- 83
2019-12-13 02:00:00 15.5 24 Oeste 45 Oeste 0 -- -- 79
2019-12-13 01:00:00 15.4 21 Oeste 46 Oeste 0 -- -- 78
2019-12-13 00:00:00 15.4 21 Oeste 38 Oeste 0 -- -- 78
2019-12-12 23:00:00 15.2 19 Oeste 35 Sudoeste 0 -- -- 77
2019-12-12 22:00:00 15 20 Oeste 39 Oeste 0 -- -- 77
2019-12-12 21:00:00 14.7 19 Oeste 40 Oeste 0 -- -- 76
2019-12-12 20:00:00 15 21 Oeste 33 Oeste 0 -- -- 72
2019-12-12 19:00:00 14.8 19 Oeste 35 Sudoeste 0 -- -- 69
2019-12-12 18:00:00 14.9 19 Oeste 37 Oeste 0 -- -- 66
2019-12-12 17:00:00 16 22 Oeste 39 Oeste 0 -- -- 61
2019-12-12 16:00:00 16.3 20 Oeste 41 Noroeste 0 -- -- 58
2019-12-12 15:00:00 16.5 28 Oeste 45 Oeste 0 -- -- 57
2019-12-12 14:00:00 15.7 27 Noroeste 53 Noroeste 0 -- -- 59
2019-12-12 13:00:00 15.6 26 Noroeste 48 Noroeste 0 -- -- 57
2019-12-12 12:00:00 15.1 26 Noroeste 53 Oeste 0 -- -- 57
2019-12-12 11:00:00 13.5 21 Oeste 37 Oeste 0 -- -- 57
2019-12-12 10:00:00 12.2 19 Oeste 31 Oeste 0 -- -- 60
2019-12-12 09:00:00 11.1 15 Oeste 31 Oeste 0 -- -- 62
2019-12-12 08:00:00 11.3 19 Oeste 32 Noroeste 0 -- -- 59
2019-12-12 07:00:00 11.4 13 Oeste 36 Noroeste 0 -- -- 59
2019-12-12 06:00:00 11.2 20 Oeste 35 Oeste 0 -- -- 59
2019-12-12 05:00:00 11.4 13 Oeste 37 Noroeste 0 -- -- 62
2019-12-12 04:00:00 11.8 22 Oeste 42 Noroeste 0 -- -- 62
2019-12-12 03:00:00 12.1 22 Oeste 43 Noroeste 0 -- -- 64
2019-12-12 02:00:00 12.4 23 Noroeste 39 Oeste 0 -- -- 64
2019-12-12 01:00:00 12.5 20 Oeste 39 Noroeste 0 -- -- 63
2019-12-12 00:00:00 12.9 16 Oeste 36 Oeste 0 -- -- 70
2019-12-11 23:00:00 12.4 22 Oeste 30 Oeste 0 -- -- 85
2019-12-11 22:00:00 12.8 13 Oeste 23 Oeste 0 -- -- 84
2019-12-11 21:00:00 14.2 16 Oeste 37 Oeste 0 -- -- 82
2019-12-11 20:00:00 14.5 25 Oeste 36 Oeste 0 -- -- 82
2019-12-11 19:00:00 15.2 20 Oeste 33 Oeste 0 -- -- 80
2019-12-11 18:00:00 16.9 23 Oeste 37 Oeste 0 -- -- 74
2019-12-11 17:00:00 18.4 23 Oeste 41 Oeste 0 -- -- 61
2019-12-11 16:00:00 19 27 Oeste 46 Oeste 0 -- -- 57
2019-12-11 15:00:00 18.9 23 Oeste 47 Oeste 0 -- -- 56
2019-12-11 14:00:00 18.4 32 Oeste 50 Oeste 0 -- -- 52
2019-12-11 13:00:00 18.3 30 Oeste 53 Oeste 0 -- -- 47
2019-12-11 12:00:00 17.3 31 Oeste 48 Oeste 0 -- -- 57
2019-12-11 11:00:00 16.3 30 Oeste 45 Oeste 0 -- -- 67
2019-12-11 10:00:00 15.4 15 Oeste 28 Oeste 0 -- -- 85
2019-12-11 09:00:00 13.9 8 Noroeste 27 Oeste 0 -- -- 90
2019-12-11 08:00:00 13.5 13 Oeste 25 Oeste 0 -- -- 91
2019-12-11 07:00:00 13.4 14 Oeste 29 Oeste 0 -- -- 88
2019-12-11 06:00:00 13.1 13 Oeste 26 Noroeste 0 -- -- 86
2019-12-11 05:00:00 13.1 14 Oeste 33 Oeste 0 -- -- 84
2019-12-11 04:00:00 13 19 Oeste 28 Oeste 0 -- -- 81
2019-12-11 03:00:00 12.9 12 Noroeste 29 Oeste 0 -- -- 77
2019-12-11 02:00:00 13.2 20 Oeste 37 Oeste 0 -- -- 77
2019-12-11 01:00:00 13.6 21 Noroeste 32 Noroeste 0 -- -- 75
2019-12-11 00:00:00 13.6 8 Noroeste 27 Oeste 0 -- -- 71
2019-12-10 23:00:00 13 9 Noroeste 23 Oeste 0 -- -- 76
2019-12-10 22:00:00 13.8 11 Noroeste 22 Oeste 0 -- -- 77
2019-12-10 21:00:00 13.9 9 Oeste 19 Oeste 0 -- -- 78
2019-12-10 20:00:00 14.3 8 Sudoeste 15 Oeste 0 -- -- 75
2019-12-10 19:00:00 15.4 2 Oeste 10 Oeste 0 -- -- 70
2019-12-10 18:00:00 17.4 9 Oeste 23 Oeste 0 -- -- 62
2019-12-10 17:00:00 19.9 18 Oeste 30 Oeste 0 -- -- 51
2019-12-10 16:00:00 21.1 16 Oeste 28 Oeste 0 -- -- 49
2019-12-10 15:00:00 21.3 13 Oeste 25 Oeste 0 -- -- 54
2019-12-10 14:00:00 17.8 6 Este 12 Sudeste 0 -- -- 76
2019-12-10 13:00:00 17.5 3 Sudeste 11 Sudeste 0 -- -- 70
2019-12-10 12:00:00 15.3 4 Norte 13 Noroeste 0 -- -- 70
2019-12-10 11:00:00 11.8 11 Noroeste 17 Noroeste 0 -- -- 75
2019-12-10 10:00:00 9.6 11 Noroeste 19 Norte 0 -- -- 82
2019-12-10 09:00:00 7.3 12 Noroeste 17 Norte 0 -- -- 95
2019-12-10 08:00:00 7.7 10 Noroeste 15 Noroeste 0 -- -- 94
2019-12-10 07:00:00 8.3 8 Noroeste 19 Noroeste 0 -- -- 92
2019-12-10 06:00:00 8.7 12 Noroeste 18 Noroeste 0 -- -- 95
2019-12-10 05:00:00 9.2 7 Noroeste 14 Norte 0 -- -- 95
2019-12-10 04:00:00 10 8 Noroeste 10 Noroeste 0 -- -- 94
2019-12-10 03:00:00 10.3 3 Oeste 9 Noroeste 0 -- -- 90
2019-12-10 02:00:00 11.5 7 Noroeste 12 Noroeste 0 -- -- 92
2019-12-10 01:00:00 12.2 9 Noroeste 14 Noroeste 0 -- -- 89
2019-12-10 00:00:00 13.1 8 Oeste 13 Oeste 0 -- -- 87
2019-12-09 23:00:00 13.6 5 Noroeste 12 Oeste 0 -- -- 86
2019-12-09 22:00:00 13.6 7 Oeste 15 Oeste 0 -- -- 84
2019-12-09 21:00:00 14.8 12 Oeste 26 Oeste 0 -- -- 82
2019-12-09 20:00:00 15.1 17 Oeste 30 Oeste 0 -- -- 82
2019-12-09 19:00:00 16 20 Oeste 32 Oeste 0 -- -- 79
2019-12-09 18:00:00 17 22 Oeste 33 Oeste 0 -- -- 74
2019-12-09 17:00:00 18.6 21 Oeste 36 Oeste 0 -- -- 70
2019-12-09 16:00:00 19.8 23 Oeste 36 Oeste 0 -- -- 67
2019-12-09 15:00:00 21.3 19 Oeste 32 Oeste 0 -- -- 61
2019-12-09 14:00:00 21.7 15 Oeste 28 Oeste 0 -- -- 60
2019-12-09 13:00:00 20.6 19 Oeste 33 Oeste 0 -- -- 63
2019-12-09 12:00:00 19.8 17 Noroeste 35 Oeste 0 -- -- 67
2019-12-09 11:00:00 18.2 16 Oeste 32 Oeste 0 -- -- 73
2019-12-09 10:00:00 16.1 22 Oeste 37 Oeste 0 -- -- 82
2019-12-09 09:00:00 14.3 23 Oeste 34 Oeste 0 -- -- 88
2019-12-09 08:00:00 13.9 17 Noroeste 33 Oeste 0 -- -- 89
2019-12-09 07:00:00 13.5 20 Oeste 30 Oeste 0 -- -- 91
2019-12-09 06:00:00 13.7 22 Oeste 33 Oeste 0 -- -- 92
2019-12-09 05:00:00 13.6 18 Oeste 36 Oeste 0 -- -- 90
2019-12-09 04:00:00 14.1 30 Oeste 40 Oeste 0 -- -- 87
2019-12-09 03:00:00 14 18 Sudoeste 28 Sudoeste 0 -- -- 83
2019-12-09 02:00:00 13.8 13 Sudoeste 33 Oeste 0 -- -- 79
2019-12-09 01:00:00 14.4 22 Oeste 39 Oeste 0 -- -- 77
2019-12-09 00:00:00 14 18 Oeste 34 Oeste 0 -- -- 81
2019-12-08 23:00:00 13.9 17 Oeste 26 Oeste 0 -- -- 80
2019-12-08 22:00:00 14.6 13 Oeste 28 Oeste 0 -- -- 77
2019-12-08 21:00:00 14.5 18 Oeste 28 Oeste 0 -- -- 78
2019-12-08 20:00:00 14.9 21 Oeste 34 Oeste 0 -- -- 75
2019-12-08 19:00:00 15.8 13 Oeste 24 Sudoeste 0 -- -- 71
2019-12-08 18:00:00 17.5 15 Oeste 29 Oeste 0 -- -- 64
2019-12-08 17:00:00 19.3 19 Oeste 34 Oeste 0 -- -- 59
2019-12-08 16:00:00 20.5 20 Oeste 33 Oeste 0 -- -- 55
2019-12-08 15:00:00 20.5 19 Oeste 30 Oeste 0 -- -- 51
2019-12-08 14:00:00 20.2 14 Oeste 30 Oeste 0 -- -- 58
2019-12-08 13:00:00 19.2 15 Oeste 25 Oeste 0 -- -- 65
2019-12-08 12:00:00 15.5 3 Sudeste 10 Norte 0 -- -- 81
2019-12-08 11:00:00 12.5 8 Norte 12 Noroeste 0 -- -- 88
2019-12-08 10:00:00 9.7 10 Noroeste 16 Noroeste 0 -- -- 98
2019-12-08 09:00:00 8 9 Noroeste 19 Noroeste 0 -- -- 98
2019-12-08 08:00:00 7.9 9 Noroeste 15 Noroeste 0 -- -- 98
2019-12-08 07:00:00 8.3 8 Noroeste 14 Noroeste 0 -- -- 98
2019-12-08 06:00:00 8.4 8 Noroeste 17 Norte 0 -- -- 98
2019-12-08 05:00:00 8.9 4 Noroeste 13 Noroeste 0 -- -- 98
2019-12-08 04:00:00 9.6 7 Noroeste 18 Noroeste 0 -- -- 98
2019-12-08 03:00:00 9.9 13 Noroeste 19 Noroeste 0 -- -- 98
2019-12-08 02:00:00 10.3 11 Noroeste 18 Noroeste 0 -- -- 97
2019-12-08 01:00:00 10.8 11 Noroeste 17 Noroeste 0 -- -- 97
2019-12-08 00:00:00 11.2 11 Noroeste 14 Noroeste 0 -- -- 97
2019-12-07 23:00:00 11.8 9 Noroeste 13 Noroeste 0 -- -- 96
2019-12-07 22:00:00 12.3 8 Noroeste 12 Noroeste 0 -- -- 96
2019-12-07 21:00:00 12.5 7 Noroeste 9 Noroeste 0 -- -- 94
2019-12-07 20:00:00 12.9 3 Noroeste 5 Noroeste 0 -- -- 91
2019-12-07 19:00:00 14.1 0 Calma 2 Oeste 0 -- -- 85
2019-12-07 18:00:00 16.1 0 Calma 6 Nordeste 0 -- -- 86
2019-12-07 17:00:00 17 3 Nordeste 5 Este 0 -- -- 83
2019-12-07 16:00:00 18.2 3 Este 5 Este 0 -- -- 79
2019-12-07 15:00:00 18.7 3 Sudeste 10 Sudeste 0 -- -- 78
2019-12-07 14:00:00 18.6 6 Sur 8 Sudeste 0 -- -- 78
2019-12-07 13:00:00 18.2 4 Este 8 Nordeste 0 -- -- 78
2019-12-07 12:00:00 17 6 Norte 11 Norte 0 -- -- 79
2019-12-07 11:00:00 15.6 2 Norte 7 Noroeste 0 -- -- 87
2019-12-07 10:00:00 14.4 6 Noroeste 13 Norte 0 -- -- 89
2019-12-07 09:00:00 12.7 8 Noroeste 14 Noroeste 0 -- -- 93
2019-12-07 08:00:00 12.8 9 Noroeste 12 Noroeste 0 -- -- 92
2019-12-07 07:00:00 13.8 5 Noroeste 8 Noroeste 0 -- -- 92
2019-12-07 06:00:00 14.7 6 Nordeste 10 Nordeste 0 -- -- 91
2019-12-07 05:00:00 14.9 6 Nordeste 13 Nordeste 0 -- -- 91
2019-12-07 04:00:00 14.9 8 Nordeste 15 Nordeste 0 -- -- 91
2019-12-07 03:00:00 14.9 5 Este 14 Este 0 -- -- 92
2019-12-07 02:00:00 15.2 8 Nordeste 21 Este 0 -- -- 90
2019-12-07 01:00:00 15.2 9 Nordeste 19 Nordeste 0 -- -- 90
2019-12-07 00:00:00 14.9 9 Nordeste 17 Nordeste 0 -- -- 92
2019-12-06 23:00:00 15.2 9 Nordeste 19 Nordeste 0 -- -- 91
2019-12-06 22:00:00 15.2 9 Este 21 Nordeste 0 -- -- 89
2019-12-06 21:00:00 15.3 11 Este 24 Este 0 -- -- 88
2019-12-06 20:00:00 15.5 12 Nordeste 20 Nordeste 0 -- -- 89
2019-12-06 19:00:00 15.4 8 Nordeste 15 Nordeste 0 -- -- 87
2019-12-06 18:00:00 15.4 9 Nordeste 15 Este 0 -- -- 85
2019-12-06 17:00:00 16.3 8 Nordeste 18 Nordeste 0 -- -- 83
2019-12-06 16:00:00 17.4 6 Nordeste 16 Este 0 -- -- 81
2019-12-06 15:00:00 17.6 4 Este 18 Este 0 -- -- 84
2019-12-06 14:00:00 17.5 6 Este 12 Nordeste 0 -- -- 80
2019-12-06 13:00:00 18 6 Este 18 Nordeste 0 -- -- 80
2019-12-06 12:00:00 18 8 Este 19 Nordeste 0 -- -- 80
2019-12-06 11:00:00 15.8 9 Este 22 Este 0 -- -- 88
2019-12-06 10:00:00 15.2 9 Nordeste 20 Nordeste 0 -- -- 88
2019-12-06 09:00:00 14.6 6 Nordeste 15 Nordeste 0 -- -- 90
2019-12-06 08:00:00 14.3 5 Nordeste 11 Este 0 -- -- 91
2019-12-06 07:00:00 14.6 6 Nordeste 20 Este 0 -- -- 90
2019-12-06 06:00:00 15 10 Este 22 Este 0 -- -- 88
2019-12-06 05:00:00 15.1 10 Este 28 Este 0 -- -- 88
2019-12-06 04:00:00 15.1 13 Nordeste 39 Este 0 -- -- 90
2019-12-06 03:00:00 15.4 32 Este 41 Este 0 -- -- 87
2019-12-06 02:00:00 14.9 24 Este 30 Este 0 -- -- 91
2019-12-06 01:00:00 14.4 6 Este 13 Nordeste 0 -- -- 94
2019-12-06 00:00:00 14.5 7 Este 14 Nordeste 0 -- -- 94
2019-12-05 23:00:00 14.8 7 Nordeste 19 Este 0 -- -- 93
2019-12-05 22:00:00 15 9 Este 22 Nordeste 0 -- -- 92
2019-12-05 21:00:00 15 12 Nordeste 25 Este 0 -- -- 91
2019-12-05 20:00:00 15 12 Nordeste 27 Nordeste 0 -- -- 92
2019-12-05 19:00:00 15 18 Nordeste 27 Nordeste 0 -- -- 91
2019-12-05 18:00:00 14.9 12 Nordeste 27 Nordeste 0 -- -- 83
2019-12-05 17:00:00 15 12 Este 23 Este 0 -- -- 81
2019-12-05 16:00:00 14.8 13 Nordeste 26 Nordeste 0 -- -- 83
2019-12-05 15:00:00 15.2 12 Nordeste 24 Nordeste 0 -- -- 81
2019-12-05 14:00:00 15.8 9 Este 21 Este 0 -- -- 76
2019-12-05 13:00:00 15.9 5 Nordeste 15 Nordeste 0 -- -- 79
2019-12-05 12:00:00 15.2 5 Nordeste 12 Este 0 -- -- 74
2019-12-05 11:00:00 13 6 Noroeste 17 Noroeste 0 -- -- 73
2019-12-05 10:00:00 10 12 Noroeste 18 Noroeste 0 -- -- 86
2019-12-05 09:00:00 8.7 12 Noroeste 19 Noroeste 0 -- -- 87
2019-12-05 08:00:00 8.8 13 Noroeste 20 Noroeste 0 -- -- 85
2019-12-05 07:00:00 9.5 8 Noroeste 16 Noroeste 0 -- -- 85
2019-12-05 06:00:00 10.3 7 Noroeste 15 Norte 0 -- -- 82
2019-12-05 05:00:00 10.7 6 Noroeste 14 Noroeste 0 -- -- 81
2019-12-05 04:00:00 11 4 Noroeste 10 Noroeste 0 -- -- 81
2019-12-05 03:00:00 11.5 2 Norte 16 Oeste 0 -- -- 78
2019-12-05 02:00:00 11.4 10 Oeste 17 Noroeste 0 -- -- 78
2019-12-05 01:00:00 11 4 Noroeste 7 Norte 0 -- -- 81
2019-12-05 00:00:00 11.2 2 Norte 6 Noroeste 0 -- -- 79
2019-12-04 23:00:00 11.8 0 Calma 8 Noroeste 0 -- -- 77
2019-12-04 22:00:00 11.8 5 Oeste 10 Oeste 0 -- -- 76
2019-12-04 21:00:00 11.6 8 Oeste 12 Oeste 0 -- -- 75
2019-12-04 20:00:00 12.1 5 Noroeste 20 Oeste 0 -- -- 71
2019-12-04 19:00:00 12.2 12 Oeste 17 Oeste 0 -- -- 68
2019-12-04 18:00:00 13.8 9 Oeste 34 Oeste 0 -- -- 59
2019-12-04 17:00:00 15.2 20 Oeste 33 Oeste 0 -- -- 49
2019-12-04 16:00:00 16.7 22 Oeste 37 Oeste 0 -- -- 55
2019-12-04 15:00:00 17.5 24 Oeste 34 Oeste 0 -- -- 52
2019-12-04 14:00:00 17.3 21 Oeste 41 Sudoeste 0 -- -- 58
2019-12-04 13:00:00 16.6 12 Noroeste 35 Oeste 0 -- -- 66
2019-12-04 12:00:00 15.9 15 Noroeste 35 Oeste 0 -- -- 72
2019-12-04 11:00:00 15.2 25 Oeste 37 Oeste 0 -- -- 77
2019-12-04 10:00:00 13.9 16 Noroeste 27 Oeste 0 -- -- 86
2019-12-04 09:00:00 13.1 14 Noroeste 30 Oeste 0 -- -- 90
2019-12-04 08:00:00 12.7 11 Oeste 23 Oeste 0 -- -- 92
2019-12-04 07:00:00 12.8 15 Oeste 22 Oeste 0 -- -- 93
2019-12-04 06:00:00 12.9 12 Oeste 20 Noroeste 0 -- -- 94
2019-12-04 05:00:00 12.1 13 Oeste 18 Oeste 0 -- -- 95
2019-12-04 04:00:00 11 5 Norte 9 Oeste 0 -- -- 92
2019-12-04 03:00:00 11.9 7 Oeste 20 Oeste 0 -- -- 89
2019-12-04 02:00:00 12.6 11 Oeste 19 Oeste 0 -- -- 90
2019-12-04 01:00:00 12.2 8 Oeste 15 Oeste 0 -- -- 91
2019-12-04 00:00:00 13 10 Oeste 16 Oeste 0 -- -- 92
2019-12-03 23:00:00 12.6 6 Noroeste 10 Oeste 0 -- -- 93
2019-12-03 22:00:00 13.1 4 Norte 7 Nordeste 0 -- -- 91
2019-12-03 21:00:00 13.5 4 Oeste 16 Oeste 0 -- -- 90
2019-12-03 20:00:00 13.7 12 Oeste 17 Oeste 0 -- -- 88
2019-12-03 19:00:00 14.2 11 Sudoeste 15 Sudoeste 0 -- -- 88
2019-12-03 18:00:00 15.2 4 Sur 6 Sudoeste 0 -- -- 87
2019-12-03 17:00:00 15.6 3 Oeste 10 Oeste 0 -- -- 81
2019-12-03 16:00:00 15.4 4 Noroeste 15 Sur 0 -- -- 81
2019-12-03 15:00:00 15 4 Oeste 13 Sudeste 0 -- -- 84
2019-12-03 14:00:00 15 7 Este 13 Este 0 -- -- 85
2019-12-03 13:00:00 14.7 5 Nordeste 13 Norte 0 -- -- 85
2019-12-03 12:00:00 14.9 8 Norte 18 Noroeste 0 -- -- 83
2019-12-03 11:00:00 13.6 8 Noroeste 19 Noroeste 0 -- -- 89
2019-12-03 10:00:00 12.4 10 Noroeste 15 Noroeste 0 -- -- 97
2019-12-03 09:00:00 11.8 3 Noroeste 11 Noroeste 0 -- -- 98
2019-12-03 08:00:00 11.9 5 Noroeste 12 Noroeste 0 -- -- 98
2019-12-03 07:00:00 12.1 4 Noroeste 6 Oeste 0.8 -- -- 97
2019-12-03 06:00:00 12.4 4 Noroeste 10 Noroeste 0.4 -- -- 96
2019-12-03 05:00:00 12.6 5 Norte 9 Norte 0 -- -- 96
2019-12-03 04:00:00 13.3 5 Noroeste 22 Nordeste 0 -- -- 95
2019-12-03 03:00:00 13.8 14 Nordeste 30 Nordeste 0 -- -- 95
2019-12-03 02:00:00 14.3 11 Este 22 Nordeste 0 -- -- 95
2019-12-03 01:00:00 14.2 6 Este 20 Este 0 -- -- 96
2019-12-03 00:00:00 14.1 8 Este 22 Este 0 -- -- 95
2019-12-02 23:00:00 14.2 12 Nordeste 30 Este 0 -- -- 95
2019-12-02 22:00:00 14.1 18 Nordeste 30 Nordeste 0 -- -- 96
2019-12-02 21:00:00 14.1 13 Nordeste 26 Este 0 -- -- 96
2019-12-02 20:00:00 14.2 15 Este 28 Nordeste 0.8 -- -- 96
2019-12-02 19:00:00 14.2 14 Este 32 Este 4.4 -- -- 97
2019-12-02 18:00:00 13.2 12 Nordeste 19 Nordeste 1.6 -- -- 96
2019-12-02 17:00:00 11.9 7 Noroeste 11 Noroeste 3.2 -- -- 97
2019-12-02 16:00:00 11.9 4 Norte 28 Nordeste 5.6 -- -- 97
2019-12-02 15:00:00 12.8 16 Nordeste 26 Nordeste 8.4 -- -- 96
2019-12-02 14:00:00 13.4 13 Este 25 Nordeste 0.8 -- -- 92
2019-12-02 13:00:00 14 8 Este 25 Nordeste 0 -- -- 91
2019-12-02 12:00:00 13.5 11 Nordeste 18 Nordeste 0.2 -- -- 96
2019-12-02 11:00:00 12.6 3 Norte 6 Noroeste 1.6 -- -- 98
2019-12-02 10:00:00 12.2 0 Calma 13 Sudeste 0.2 -- -- 98
2019-12-02 09:00:00 12.1 12 Sudeste 15 Sudeste 1.2 -- -- 99
2019-12-02 08:00:00 11.5 3 Oeste 7 Noroeste 2.8 -- -- 99
2019-12-02 07:00:00 11.2 3 Norte 8 Noroeste 0 -- -- 99
2019-12-02 06:00:00 11 5 Norte 8 Norte 0 -- -- 99
2019-12-02 05:00:00 10.8 4 Noroeste 7 Noroeste 0 -- -- 98
2019-12-02 04:00:00 10.8 5 Noroeste 9 Norte 0 -- -- 98
2019-12-02 03:00:00 11.1 0 Calma 13 Oeste 0 -- -- 97
2019-12-02 02:00:00 11.8 12 Oeste 15 Oeste 0 -- -- 97
2019-12-02 01:00:00 12 8 Oeste 12 Oeste 0.4 -- -- 96
2019-12-02 00:00:00 11.7 8 Oeste 14 Oeste 0 -- -- 97
2019-12-01 23:00:00 10.5 3 Sudoeste 10 Oeste 0 -- -- 95
2019-12-01 22:00:00 11.4 9 Oeste 13 Oeste 0 -- -- 93
2019-12-01 21:00:00 13.1 9 Oeste 20 Oeste 0 -- -- 93
2019-12-01 20:00:00 13.5 6 Oeste 14 Oeste 0 -- -- 94
2019-12-01 19:00:00 13.8 3 Noroeste 18 Oeste 0.8 -- -- 94
2019-12-01 18:00:00 14.3 13 Oeste 20 Oeste 0.4 -- -- 92
2019-12-01 17:00:00 14.7 10 Oeste 26 Oeste 2.2 -- -- 91
2019-12-01 16:00:00 17.2 14 Oeste 34 Sudoeste 0 -- -- 75
2019-12-01 15:00:00 19.4 19 Oeste 37 Oeste 0 -- -- 58
2019-12-01 14:00:00 17.7 20 Oeste 32 Oeste 0 -- -- 65
2019-12-01 13:00:00 18 19 Oeste 35 Oeste 0.2 -- -- 68
2019-12-01 12:00:00 15.6 18 Oeste 28 Oeste 0 -- -- 76
2019-12-01 11:00:00 15.1 6 Sudoeste 15 Sur 0 -- -- 91
2019-12-01 10:00:00 14.8 9 Sur 15 Sur 0 -- -- 94
2019-12-01 09:00:00 14 5 Sudoeste 17 Sudoeste 0 -- -- 94
2019-12-01 08:00:00 13.6 10 Sudoeste 15 Oeste 0 -- -- 94
2019-12-01 07:00:00 13.9 8 Oeste 22 Noroeste 0 -- -- 93
2019-12-01 06:00:00 14.3 13 Oeste 24 Oeste 0 -- -- 93
2019-12-01 05:00:00 15.1 5 Noroeste 32 Oeste 0.4 -- -- 94
2019-12-01 04:00:00 15.7 15 Oeste 26 Oeste 0.4 -- -- 92
2019-12-01 03:00:00 15.8 16 Oeste 26 Oeste 0 -- -- 89
2019-12-01 02:00:00 15.4 14 Oeste 22 Oeste 0 -- -- 88
2019-12-01 01:00:00 14.9 11 Oeste 22 Oeste 0 -- -- 88
2019-12-01 00:00:00 14.2 14 Oeste 27 Oeste 0 -- -- 89
2019-11-30 23:00:00 14.5 17 Oeste 30 Oeste 0 -- -- 85
2019-11-30 22:00:00 15 18 Oeste 30 Oeste 0 -- -- 79
2019-11-30 21:00:00 15.5 12 Oeste 28 Oeste 0 -- -- 78
2019-11-30 20:00:00 16.1 15 Oeste 30 Noroeste 0 -- -- 77
2019-11-30 19:00:00 17.3 15 Oeste 23 Oeste 0 -- -- 73
2019-11-30 18:00:00 19.1 21 Oeste 30 Oeste 0 -- -- 67
2019-11-30 17:00:00 21 19 Oeste 33 Sudoeste 0 -- -- 60
2019-11-30 16:00:00 20.6 18 Oeste 34 Oeste 0 -- -- 62
2019-11-30 15:00:00 18 7 Sur 10 Sur 0 -- -- 79
2019-11-30 14:00:00 17.9 7 Sudeste 9 Sudeste 0 -- -- 77
2019-11-30 13:00:00 17.7 5 Sudeste 7 Sudeste 0 -- -- 74
2019-11-30 12:00:00 17.1 4 Este 6 Sudeste 0 -- -- 72
2019-11-30 11:00:00 14.6 6 Noroeste 14 Norte 0 -- -- 81
2019-11-30 10:00:00 11.8 10 Noroeste 18 Norte 0 -- -- 94
2019-11-30 09:00:00 10.1 9 Noroeste 15 Noroeste 0 -- -- 95
2019-11-30 08:00:00 10.1 10 Noroeste 18 Noroeste 0 -- -- 94
2019-11-30 07:00:00 10.2 13 Noroeste 20 Noroeste 0 -- -- 95
2019-11-30 06:00:00 10.3 13 Noroeste 18 Noroeste 0 -- -- 96
2019-11-30 05:00:00 10.5 11 Noroeste 17 Noroeste 0 -- -- 95
2019-11-30 04:00:00 11.1 10 Noroeste 18 Norte 0 -- -- 94
2019-11-30 03:00:00 11.4 10 Noroeste 15 Noroeste 0 -- -- 94
2019-11-30 02:00:00 12 10 Noroeste 14 Noroeste 0 -- -- 93
2019-11-30 01:00:00 12.5 6 Norte 10 Norte 0 -- -- 92
2019-11-30 00:00:00 13.3 9 Noroeste 15 Norte 0 -- -- 91
2019-11-29 23:00:00 13.4 6 Norte 12 Oeste 0 -- -- 91
2019-11-29 22:00:00 13.5 8 Noroeste 12 Noroeste 0 -- -- 91
2019-11-29 21:00:00 13.8 2 Noroeste 10 Noroeste 0 -- -- 90
2019-11-29 20:00:00 14.4 0 Calma 5 Oeste 0 -- -- 90
2019-11-29 19:00:00 15.1 0 Calma 8 Nordeste 0 -- -- 85
2019-11-29 18:00:00 16.8 5 Nordeste 12 Este 0 -- -- 82
2019-11-29 17:00:00 21.6 8 Norte 23 Oeste 0 -- -- 63
2019-11-29 16:00:00 23.3 13 Oeste 21 Oeste 0 -- -- 54
2019-11-29 15:00:00 19.4 13 Sur 21 Sur 0 -- -- 71
2019-11-29 14:00:00 19 11 Sur 15 Sur 0 -- -- 74
2019-11-29 13:00:00 18.4 7 Sudeste 13 Sur 0 -- -- 77
2019-11-29 12:00:00 18.5 9 Sudeste 12 Sur 0 -- -- 72
2019-11-29 11:00:00 16.1 8 Noroeste 13 Noroeste 0 -- -- 78
2019-11-29 10:00:00 13.1 7 Noroeste 17 Noroeste 0 -- -- 87
2019-11-29 09:00:00 11.4 10 Noroeste 16 Noroeste 0 -- -- 92
2019-11-29 08:00:00 11.2 11 Noroeste 17 Noroeste 0 -- -- 92
2019-11-29 07:00:00 10.8 6 Noroeste 15 Oeste 0 -- -- 92
2019-11-29 06:00:00 11.7 0 Calma 20 Oeste 0 -- -- 90
2019-11-29 05:00:00 11.9 11 Noroeste 21 Noroeste 0 -- -- 93
2019-11-29 04:00:00 11.6 9 Noroeste 14 Noroeste 0 -- -- 91
2019-11-29 03:00:00 12.2 6 Norte 24 Oeste 0 -- -- 88
2019-11-29 02:00:00 13.7 11 Noroeste 23 Oeste 0 -- -- 86
2019-11-29 01:00:00 14.1 13 Noroeste 22 Noroeste 0 -- -- 85
2019-11-29 00:00:00 13.8 9 Oeste 23 Noroeste 0 -- -- 84
2019-11-28 23:00:00 14.2 9 Oeste 22 Oeste 0 -- -- 86
2019-11-28 22:00:00 14.8 7 Noroeste 19 Oeste 0 -- -- 84
2019-11-28 21:00:00 15.1 12 Oeste 19 Oeste 0 -- -- 82
2019-11-28 20:00:00 15.9 13 Oeste 18 Oeste 0 -- -- 78
2019-11-28 19:00:00 17.1 10 Oeste 18 Oeste 0 -- -- 73
2019-11-28 18:00:00 19 12 Oeste 29 Oeste 0 -- -- 66
2019-11-28 17:00:00 21 14 Oeste 27 Oeste 0 -- -- 59
2019-11-28 16:00:00 21.5 17 Oeste 31 Oeste 0 -- -- 58
2019-11-28 15:00:00 21.8 19 Oeste 29 Oeste 0 -- -- 59
2019-11-28 14:00:00 21.5 17 Oeste 34 Oeste 0 -- -- 58
2019-11-28 13:00:00 20.7 13 Noroeste 28 Oeste 0 -- -- 61
2019-11-28 12:00:00 19.5 13 Noroeste 25 Noroeste 0 -- -- 65
2019-11-28 11:00:00 17.6 13 Oeste 25 Oeste 0 -- -- 73
2019-11-28 10:00:00 13.9 4 Nordeste 9 Nordeste 0 -- -- 93
2019-11-28 09:00:00 12.7 3 Oeste 9 Oeste 0 -- -- 97
2019-11-28 08:00:00 12.7 4 Noroeste 22 Oeste 0 -- -- 96
2019-11-28 07:00:00 12.4 6 Noroeste 15 Noroeste 0 -- -- 94
2019-11-28 06:00:00 13.3 10 Noroeste 17 Oeste 0 -- -- 94
2019-11-28 05:00:00 13.4 2 Norte 18 Oeste 0 -- -- 94
2019-11-28 04:00:00 13.1 8 Oeste 12 Oeste 0 -- -- 93
2019-11-28 03:00:00 13.5 6 Noroeste 17 Oeste 0 -- -- 94
2019-11-28 02:00:00 13.5 9 Oeste 15 Oeste 0 -- -- 94
2019-11-28 01:00:00 13.8 3 Noroeste 19 Oeste 0 -- -- 93
2019-11-28 00:00:00 14.3 9 Noroeste 16 Noroeste 0 -- -- 93
2019-11-27 23:00:00 14.4 6 Oeste 17 Oeste 0 -- -- 92
2019-11-27 22:00:00 15 12 Oeste 22 Oeste 0 -- -- 91
2019-11-27 21:00:00 15.3 13 Oeste 19 Oeste 0 -- -- 90
2019-11-27 20:00:00 15.7 15 Oeste 25 Oeste 0 -- -- 88
2019-11-27 19:00:00 16.7 14 Oeste 30 Oeste 0 -- -- 85
2019-11-27 18:00:00 18 17 Oeste 32 Oeste 0 -- -- 81
2019-11-27 17:00:00 18.8 18 Oeste 31 Oeste 0 -- -- 78
2019-11-27 16:00:00 18.8 19 Oeste 29 Sudoeste 0 -- -- 81
2019-11-27 15:00:00 18.8 18 Sudoeste 32 Sudoeste 0 -- -- 82
2019-11-27 14:00:00 18.7 22 Sudoeste 32 Sudoeste 0 -- -- 83
2019-11-27 06:00:00 -- -- -- -- -- -- -- -- --
2019-11-27 05:00:00 17 13 Oeste 25 Oeste 0 -- -- 93
2019-11-27 04:00:00 17.1 9 Oeste 24 Oeste 0 -- -- 90
2019-11-27 03:00:00 17.4 7 Oeste 21 Oeste 0 -- -- 86
2019-11-27 02:00:00 17.8 14 Oeste 24 Oeste 0 -- -- 84
2019-11-27 01:00:00 17.5 14 Oeste 20 Oeste 0 -- -- 87
2019-11-27 00:00:00 17.1 12 Oeste 26 Oeste 0 -- -- 88
2019-11-26 23:00:00 16.9 17 Oeste 23 Oeste 0 -- -- 87
2019-11-26 22:00:00 17.6 13 Oeste 30 Oeste 0 -- -- 85
2019-11-26 21:00:00 17.9 20 Oeste 32 Oeste 0 -- -- 86
2019-11-26 20:00:00 18.3 17 Oeste 30 Oeste 0 -- -- 85
2019-11-26 19:00:00 18.3 16 Oeste 28 Oeste 0 -- -- 83
2019-11-26 18:00:00 19.2 17 Oeste 31 Oeste 0 -- -- 78
2019-11-26 17:00:00 20.4 20 Oeste 31 Oeste 0 -- -- 75
2019-11-26 16:00:00 21.2 16 Oeste 34 Oeste 0 -- -- 76
2019-11-26 15:00:00 21.4 16 Oeste 34 Noroeste 0 -- -- 76
2019-11-26 14:00:00 20.6 13 Oeste 32 Oeste 0 -- -- 79
2019-11-26 13:00:00 22.1 20 Oeste 31 Oeste 0 -- -- 72
2019-11-26 12:00:00 21 15 Oeste 23 Oeste 0 -- -- 73
2019-11-26 11:00:00 19.5 14 Oeste 25 Oeste 0 -- -- 77
2019-11-26 10:00:00 18 17 Oeste 23 Oeste 0 -- -- 83
2019-11-26 09:00:00 16.2 11 Oeste 20 Oeste 0 -- -- 90
2019-11-26 08:00:00 15.2 9 Oeste 21 Oeste 0 -- -- 95
2019-11-26 07:00:00 15.3 12 Oeste 19 Oeste 0 -- -- 95
2019-11-26 06:00:00 15.8 13 Oeste 22 Oeste 0 -- -- 95
2019-11-26 05:00:00 16.3 13 Oeste 22 Oeste 0 -- -- 95
2019-11-26 04:00:00 16.7 11 Oeste 19 Oeste 0 -- -- 95
2019-11-26 03:00:00 17.1 13 Oeste 21 Oeste 0 -- -- 95
2019-11-26 02:00:00 17.4 11 Oeste 24 Oeste 0 -- -- 94
2019-11-26 01:00:00 17.4 11 Oeste 23 Oeste 0 -- -- 94
2019-11-26 00:00:00 17.3 14 Oeste 21 Sudoeste 0 -- -- 94
2019-11-25 23:00:00 16.8 4 Noroeste 18 Oeste 0 -- -- 93
2019-11-25 22:00:00 17 10 Oeste 19 Oeste 0 -- -- 91
2019-11-25 21:00:00 16.9 6 Oeste 13 Oeste 0 -- -- 90
2019-11-25 20:00:00 17 6 Noroeste 16 Oeste 0 -- -- 88
2019-11-25 19:00:00 17.2 10 Oeste 22 Oeste 0 -- -- 85
2019-11-25 18:00:00 18.5 13 Oeste 31 Noroeste 0 -- -- 80
2019-11-25 17:00:00 20 14 Oeste 34 Noroeste 0 -- -- 74
2019-11-25 16:00:00 20.7 15 Oeste 32 Noroeste 0 -- -- 72
2019-11-25 15:00:00 19.6 17 Oeste 32 Oeste 0 -- -- 75
2019-11-25 14:00:00 19.4 17 Oeste 39 Noroeste 0 -- -- 76
2019-11-25 13:00:00 19.1 21 Oeste 38 Oeste 0 -- -- 76
2019-11-25 12:00:00 18.9 20 Noroeste 36 Oeste 0 -- -- 78
2019-11-25 11:00:00 18 20 Noroeste 34 Oeste 0 -- -- 81
2019-11-25 10:00:00 16.5 12 Oeste 28 Oeste 0 -- -- 85
2019-11-25 09:00:00 14.5 12 Noroeste 22 Noroeste 0 -- -- 91
2019-11-25 08:00:00 13.8 7 Noroeste 20 Oeste 0 -- -- 89
2019-11-25 07:00:00 13.7 12 Noroeste 26 Oeste 0 -- -- 88
2019-11-25 06:00:00 13.3 16 Noroeste 24 Oeste 0 -- -- 89
2019-11-25 05:00:00 12.7 11 Oeste 21 Oeste 0 -- -- 89
2019-11-25 04:00:00 12.7 15 Oeste 22 Oeste 0 -- -- 89
2019-11-25 03:00:00 12.6 13 Oeste 23 Oeste 0 -- -- 88
2019-11-25 02:00:00 12.7 17 Oeste 24 Oeste 0 -- -- 86
2019-11-25 01:00:00 12.2 8 Oeste 21 Oeste 0 -- -- 86
2019-11-25 00:00:00 12.3 12 Oeste 20 Oeste 0 -- -- 85
2019-11-24 23:00:00 12.3 9 Oeste 18 Oeste 0 -- -- 83
2019-11-24 22:00:00 12.2 12 Oeste 22 Oeste 0 -- -- 81
2019-11-24 21:00:00 12.4 17 Oeste 24 Oeste 0 -- -- 77
2019-11-24 20:00:00 12.9 11 Oeste 28 Oeste 0 -- -- 72
2019-11-24 19:00:00 14.2 17 Oeste 24 Oeste 0 -- -- 69
2019-11-24 18:00:00 15.8 12 Oeste 30 Oeste 0 -- -- 66
2019-11-24 17:00:00 17.4 19 Oeste 37 Oeste 0 -- -- 58
2019-11-24 16:00:00 18.2 22 Oeste 42 Oeste 0 -- -- 55
2019-11-24 15:00:00 18.3 24 Oeste 40 Oeste 0 -- -- 51
2019-11-24 14:00:00 18 24 Oeste 35 Sudoeste 0 -- -- 52
2019-11-24 13:00:00 17.6 22 Oeste 38 Oeste 0 -- -- 53
2019-11-24 12:00:00 16.9 13 Oeste 23 Oeste 0 -- -- 60
2019-11-24 11:00:00 14.9 13 Oeste 23 Oeste 0 -- -- 69
2019-11-24 10:00:00 12.6 8 Noroeste 18 Oeste 0 -- -- 77
2019-11-24 09:00:00 10.9 12 Noroeste 27 Oeste 0 -- -- 83
2019-11-24 08:00:00 9.5 15 Oeste 23 Oeste 0 -- -- 87
2019-11-24 07:00:00 10.3 13 Oeste 20 Oeste 0 -- -- 82
2019-11-24 06:00:00 10.5 14 Oeste 21 Oeste 0 -- -- 82
2019-11-24 05:00:00 10.8 16 Oeste 22 Oeste 0 -- -- 81
2019-11-24 04:00:00 11.2 15 Oeste 24 Oeste 0 -- -- 82
2019-11-24 03:00:00 11.6 14 Oeste 29 Oeste 0 -- -- 81
2019-11-24 02:00:00 12.6 17 Oeste 30 Noroeste 0 -- -- 77
2019-11-24 01:00:00 12.7 16 Oeste 29 Noroeste 0 -- -- 79
2019-11-24 00:00:00 11.4 15 Oeste 20 Oeste 0 -- -- 92
2019-11-23 23:00:00 11.5 6 Oeste 12 Noroeste 0 -- -- 88
2019-11-23 22:00:00 12.7 6 Noroeste 17 Oeste 0 -- -- 87
2019-11-23 21:00:00 13.3 12 Oeste 27 Oeste 0 -- -- 84
2019-11-23 20:00:00 13.8 17 Oeste 26 Oeste 0 -- -- 81
2019-11-23 19:00:00 14.4 18 Oeste 29 Oeste 0 -- -- 74
2019-11-23 18:00:00 15.6 17 Oeste 36 Oeste 0 -- -- 69
2019-11-23 17:00:00 16.8 23 Oeste 45 Oeste 0 -- -- 62
2019-11-23 16:00:00 17.9 24 Oeste 42 Oeste 0 -- -- 61
2019-11-23 15:00:00 17.8 23 Oeste 44 Oeste 0 -- -- 59
2019-11-23 14:00:00 17.5 23 Oeste 41 Oeste 0 -- -- 61
2019-11-23 13:00:00 16.8 22 Oeste 42 Oeste 0 -- -- 63
2019-11-23 12:00:00 16.2 26 Oeste 44 Noroeste 0 -- -- 70
2019-11-23 11:00:00 16 21 Oeste 49 Noroeste 0 -- -- 76
2019-11-23 10:00:00 14.3 26 Oeste 55 Oeste 0 -- -- 81
2019-11-23 09:00:00 13.8 27 Oeste 52 Oeste 0 -- -- 83
2019-11-23 08:00:00 13.6 28 Oeste 53 Oeste 0 -- -- 85
2019-11-23 07:00:00 15.4 28 Oeste 49 Oeste 0 -- -- 83
2019-11-23 06:00:00 15 24 Oeste 44 Oeste 0 -- -- 83
2019-11-23 05:00:00 14.8 27 Oeste 48 Oeste 0 -- -- 82
2019-11-23 04:00:00 15.3 32 Oeste 52 Oeste 0 -- -- 83
2019-11-23 03:00:00 15.3 28 Oeste 50 Oeste 0 -- -- 87
2019-11-23 02:00:00 15.5 29 Oeste 52 Oeste 0 -- -- 87
2019-11-23 01:00:00 15.4 30 Oeste 46 Oeste 0 -- -- 86
2019-11-23 00:00:00 15.1 22 Oeste 39 Oeste 0 -- -- 86
2019-11-22 23:00:00 15.4 22 Oeste 43 Oeste 0 -- -- 90
2019-11-22 22:00:00 15.4 24 Oeste 57 Oeste 1 -- -- 96
2019-11-22 21:00:00 18 36 Oeste 67 Sudoeste 9.6 -- -- 96
2019-11-22 20:00:00 18.2 33 Sudoeste 60 Sudoeste 2 -- -- 96
2019-11-22 19:00:00 18.4 35 Sudoeste 62 Oeste 1 -- -- 91
2019-11-22 18:00:00 18.9 32 Oeste 61 Oeste 0 -- -- 89
2019-11-22 17:00:00 18.7 27 Oeste 47 Oeste 0 -- -- 90
2019-11-22 16:00:00 18.3 28 Oeste 44 Oeste 0.2 -- -- 95
2019-11-22 15:00:00 16.9 23 Sudoeste 42 Sudoeste 0.6 -- -- 98
2019-11-22 14:00:00 16.6 31 Sudoeste 46 Sudoeste 0.2 -- -- 97
2019-11-22 13:00:00 17.5 29 Sudoeste 39 Sudoeste 0 -- -- 97
2019-11-22 12:00:00 15.9 26 Sudoeste 46 Sudoeste 0 -- -- 99
2019-11-22 11:00:00 15.7 23 Sudoeste 40 Sudoeste 0 -- -- 99
2019-11-22 10:00:00 15.5 13 Sudoeste 34 Sudoeste 0.2 -- -- 100
2019-11-22 09:00:00 15.5 24 Sudoeste 42 Sudoeste 1.6 -- -- 100
2019-11-22 08:00:00 15.4 13 Sudoeste 23 Sudoeste 8.8 -- -- 100
2019-11-22 07:00:00 15.3 12 Oeste 24 Sudoeste 7.4 -- -- 100
2019-11-22 06:00:00 15.1 15 Sudoeste 39 Sur 12.4 -- -- 100
2019-11-22 05:00:00 15 24 Sudoeste 42 Sudoeste 0.4 -- -- 99
2019-11-22 04:00:00 14.9 20 Sudoeste 40 Sudoeste 1.2 -- -- 100
2019-11-22 03:00:00 15.2 18 Sudoeste 36 Sudoeste 1.2 -- -- 100
2019-11-22 02:00:00 14.9 21 Sudoeste 32 Sudoeste 0.6 -- -- 100
2019-11-22 01:00:00 14.5 10 Sudoeste 18 Sudoeste 0.2 -- -- 100
2019-11-22 00:00:00 14 2 Sur 7 Sur 0.2 -- -- 100
2019-11-21 23:00:00 14.4 2 Oeste 5 Oeste 0.2 -- -- 99
2019-11-21 22:00:00 14.5 2 Sur 4 Noroeste 2 -- -- 99
2019-11-21 21:00:00 14.6 0 Calma 4 Sudeste 0 -- -- 99
2019-11-21 20:00:00 14.8 3 Norte 5 Norte 0.2 -- -- 99
2019-11-21 19:00:00 15 2 Sudoeste 8 Sudoeste 0 -- -- 99
2019-11-21 18:00:00 15.1 5 Sudoeste 7 Sudoeste 0.4 -- -- 98
2019-11-21 17:00:00 15.1 4 Sudoeste 29 Sudoeste 12.4 -- -- 98
2019-11-21 16:00:00 15.5 14 Sudoeste 29 Oeste 11 -- -- 97
2019-11-21 15:00:00 16.1 5 Sudoeste 14 Sudoeste 0.8 -- -- 98
2019-11-21 14:00:00 15.7 5 Sudeste 9 Oeste 2 -- -- 99
2019-11-21 13:00:00 15.4 5 Sudoeste 13 Sudoeste 2.8 -- -- 99
2019-11-21 12:00:00 14.9 9 Sudoeste 19 Sudoeste 4.2 -- -- 100
2019-11-21 11:00:00 14.1 4 Norte 9 Norte 0.8 -- -- 100
2019-11-21 10:00:00 13.4 5 Norte 9 Norte 0.4 -- -- 100
2019-11-21 09:00:00 13.1 3 Este 28 Sudoeste 0.6 -- -- 100
2019-11-21 08:00:00 11.9 3 Oeste 11 Noroeste 0.2 -- -- 100
2019-11-21 07:00:00 11.7 6 Noroeste 9 Noroeste 0 -- -- 100
2019-11-21 06:00:00 11.5 6 Noroeste 9 Noroeste 0 -- -- 100
2019-11-21 05:00:00 11 4 Norte 12 Noroeste 0.2 -- -- 100
2019-11-21 04:00:00 11 5 Noroeste 13 Noroeste 1.6 -- -- 100
2019-11-21 03:00:00 10.9 9 Noroeste 16 Noroeste 0 -- -- 99
2019-11-21 02:00:00 10.6 6 Norte 10 Noroeste 0.2 -- -- 99
2019-11-21 01:00:00 10.6 6 Noroeste 10 Noroeste 0.4 -- -- 99
2019-11-21 00:00:00 10.8 4 Noroeste 9 Noroeste 0 -- -- 98
2019-11-20 23:00:00 10.5 6 Noroeste 10 Noroeste 0 -- -- 97
2019-11-20 22:00:00 11.3 3 Noroeste 9 Norte 0 -- -- 96
2019-11-20 21:00:00 12.7 6 Oeste 11 Noroeste 0 -- -- 94
2019-11-20 20:00:00 13.1 3 Norte 10 Sur 0 -- -- 94
2019-11-20 19:00:00 13.4 13 Sur 22 Sur 0 -- -- 93
2019-11-20 18:00:00 13.2 9 Sur 15 Sur 0 -- -- 94
2019-11-20 17:00:00 13 0 Calma 9 Sur 2.4 -- -- 94
2019-11-20 16:00:00 13.2 9 Sudoeste 25 Sur 0.6 -- -- 91
2019-11-20 15:00:00 13.4 14 Sur 42 Sudeste 2 -- -- 93
2019-11-20 14:00:00 12 3 Norte 10 Noroeste 0 -- -- 94
2019-11-20 13:00:00 11.1 8 Noroeste 16 Norte 0 -- -- 94
2019-11-20 12:00:00 10.3 9 Noroeste 15 Noroeste 0.4 -- -- 93
2019-11-20 11:00:00 9.5 11 Noroeste 18 Noroeste 0 -- -- 89
2019-11-20 10:00:00 8.6 12 Noroeste 21 Noroeste 0 -- -- 90
2019-11-20 09:00:00 8.1 13 Noroeste 23 Noroeste 0 -- -- 89
2019-11-20 08:00:00 7 13 Noroeste 23 Noroeste 0 -- -- 93
2019-11-20 07:00:00 7.2 14 Noroeste 21 Noroeste 0 -- -- 93
2019-11-20 06:00:00 7.6 9 Noroeste 17 Noroeste 0 -- -- 94
2019-11-20 05:00:00 7.8 9 Noroeste 13 Noroeste 0 -- -- 93
2019-11-20 04:00:00 8.4 6 Noroeste 17 Noroeste 0 -- -- 90
2019-11-20 03:00:00 9.1 11 Noroeste 16 Noroeste 0 -- -- 92
2019-11-20 02:00:00 9.6 6 Noroeste 11 Noroeste 0 -- -- 91
2019-11-20 01:00:00 10.2 8 Noroeste 9 Noroeste 0 -- -- 90
2019-11-20 00:00:00 11.1 4 Noroeste 5 Noroeste 0 -- -- 85
2019-11-19 23:00:00 12.1 3 Sudoeste 9 Norte 0 -- -- 82
2019-11-19 22:00:00 12.5 2 Oeste 6 Oeste 0 -- -- 79
2019-11-19 21:00:00 13.8 4 Noroeste 6 Noroeste 0 -- -- 76
2019-11-19 20:00:00 14.2 4 Oeste 14 Oeste 0 -- -- 74
2019-11-19 19:00:00 14.4 10 Oeste 20 Oeste 0 -- -- 71
2019-11-19 18:00:00 15.4 12 Oeste 31 Oeste 0 -- -- 65
2019-11-19 17:00:00 16.8 17 Oeste 26 Sudoeste 0 -- -- 60
2019-11-19 16:00:00 18.3 14 Oeste 21 Oeste 0 -- -- 48
2019-11-19 15:00:00 18.6 14 Oeste 23 Oeste 0 -- -- 48
2019-11-19 14:00:00 18.8 12 Noroeste 26 Oeste 0 -- -- 53
2019-11-19 13:00:00 18 9 Noroeste 20 Oeste 0 -- -- 57
2019-11-19 12:00:00 16.2 8 Noroeste 16 Noroeste 0 -- -- 71
2019-11-19 11:00:00 13.2 10 Noroeste 17 Noroeste 0 -- -- 74
2019-11-19 10:00:00 9.7 11 Noroeste 17 Noroeste 0 -- -- 81
2019-11-19 09:00:00 8 13 Noroeste 17 Noroeste 0 -- -- 86
2019-11-19 08:00:00 8.1 12 Noroeste 19 Noroeste 0 -- -- 85
2019-11-19 07:00:00 8.1 10 Noroeste 17 Noroeste 0 -- -- 87
2019-11-19 06:00:00 7.5 10 Noroeste 15 Noroeste 0 -- -- 89
2019-11-19 05:00:00 7.3 8 Noroeste 15 Noroeste 0 -- -- 88
2019-11-19 04:00:00 8.3 9 Noroeste 13 Noroeste 0 -- -- 88
2019-11-19 03:00:00 8.7 6 Noroeste 14 Noroeste 0 -- -- 84
2019-11-19 02:00:00 9 8 Noroeste 14 Noroeste 0 -- -- 83
2019-11-19 01:00:00 9.7 10 Noroeste 17 Noroeste 0 -- -- 80
2019-11-19 00:00:00 11 10 Noroeste 19 Noroeste 0 -- -- 79
2019-11-18 23:00:00 11.5 10 Noroeste 22 Oeste 0 -- -- 78
2019-11-18 22:00:00 11.7 9 Noroeste 19 Oeste 0 -- -- 74
2019-11-18 21:00:00 12.2 6 Noroeste 22 Oeste 0 -- -- 69
2019-11-18 20:00:00 12.9 12 Oeste 26 Noroeste 0 -- -- 64
2019-11-18 19:00:00 13.5 11 Oeste 30 Oeste 0 -- -- 62
2019-11-18 18:00:00 15.2 19 Noroeste 42 Noroeste 0 -- -- 56
2019-11-18 17:00:00 16.6 24 Noroeste 37 Noroeste 0 -- -- 54
2019-11-18 16:00:00 17.1 15 Noroeste 33 Oeste 0 -- -- 53
2019-11-18 15:00:00 16.9 22 Oeste 39 Oeste 0 -- -- 55
2019-11-18 14:00:00 16.1 24 Oeste 36 Oeste 0 -- -- 59
2019-11-18 13:00:00 15.5 18 Oeste 43 Oeste 0 -- -- 60
2019-11-18 12:00:00 14.5 26 Oeste 43 Oeste 0 -- -- 62
2019-11-18 11:00:00 13.6 18 Oeste 44 Oeste 0 -- -- 68
2019-11-18 10:00:00 12.1 23 Oeste 42 Oeste 0 -- -- 72
2019-11-18 09:00:00 10.9 16 Oeste 35 Oeste 0 -- -- 79
2019-11-18 08:00:00 10.3 22 Oeste 45 Oeste 0 -- -- 80
2019-11-18 07:00:00 11 24 Noroeste 48 Oeste 0 -- -- 78
2019-11-18 06:00:00 12.5 23 Noroeste 55 Noroeste 0 -- -- 80
2019-11-18 05:00:00 14.1 26 Oeste 45 Oeste 0.8 -- -- 93
2019-11-18 04:00:00 14.8 27 Oeste 48 Oeste 1.8 -- -- 91
2019-11-18 03:00:00 15.7 24 Oeste 51 Oeste 0.2 -- -- 88
2019-11-18 02:00:00 15.8 17 Oeste 38 Oeste 0 -- -- 88
2019-11-18 01:00:00 15.6 10 Oeste 22 Oeste 0 -- -- 87
2019-11-18 00:00:00 15.5 15 Oeste 30 Oeste 0 -- -- 90
2019-11-17 23:00:00 15.2 17 Oeste 30 Oeste 0 -- -- 91
2019-11-17 22:00:00 14.6 17 Oeste 32 Oeste 0.2 -- -- 95
2019-11-17 21:00:00 14.2 16 Sudoeste 22 Sudoeste 0 -- -- 94
2019-11-17 20:00:00 14.5 16 Sudoeste 23 Sudoeste 0.4 -- -- 93
2019-11-17 19:00:00 14.3 9 Sudoeste 15 Oeste 0 -- -- 92
2019-11-17 18:00:00 14.5 10 Oeste 30 Sudoeste 0 -- -- 91
2019-11-17 17:00:00 14.5 23 Sudoeste 52 Sudoeste 0 -- -- 88
2019-11-17 16:00:00 16.5 34 Sudoeste 58 Oeste 0 -- -- 71
2019-11-17 15:00:00 15.8 23 Oeste 49 Oeste 0 -- -- 74
2019-11-17 14:00:00 15.2 19 Oeste 37 Sudoeste 0 -- -- 73
2019-11-17 13:00:00 14.7 19 Oeste 44 Sudoeste 0 -- -- 76
2019-11-17 12:00:00 15.1 24 Oeste 45 Oeste 0 -- -- 69
2019-11-17 11:00:00 15.3 15 Oeste 27 Oeste 0 -- -- 61
2019-11-17 10:00:00 12.7 12 Oeste 26 Oeste 0 -- -- 62
2019-11-17 09:00:00 10.3 15 Oeste 22 Oeste 0 -- -- 70
2019-11-17 08:00:00 8.1 13 Oeste 20 Oeste 0 -- -- 80
2019-11-17 07:00:00 8.2 13 Oeste 20 Oeste 0 -- -- 82
2019-11-17 06:00:00 7.5 12 Oeste 18 Oeste 0 -- -- 85
2019-11-17 05:00:00 5.8 8 Oeste 10 Oeste 0 -- -- 90
2019-11-17 04:00:00 5.7 0 Calma 10 Noroeste 0 -- -- 88
2019-11-17 03:00:00 6 3 Norte 5 Norte 0 -- -- 87
2019-11-17 02:00:00 6.7 3 Noroeste 9 Norte 0 -- -- 83
2019-11-17 01:00:00 6.9 6 Noroeste 10 Noroeste 0 -- -- 85
2019-11-17 00:00:00 7.7 6 Oeste 14 Oeste 0 -- -- 79
2019-11-16 23:00:00 8.8 8 Oeste 15 Noroeste 0 -- -- 76
2019-11-16 22:00:00 9.9 6 Oeste 20 Oeste 0 -- -- 70
2019-11-16 21:00:00 10.3 15 Oeste 27 Oeste 0 -- -- 67
2019-11-16 20:00:00 10.2 12 Oeste 20 Oeste 0 -- -- 67
2019-11-16 19:00:00 11.5 10 Oeste 21 Oeste 0 -- -- 54
2019-11-16 18:00:00 13.9 17 Oeste 36 Oeste 0 -- -- 48
2019-11-16 17:00:00 15.7 23 Oeste 36 Oeste 0 -- -- 43
2019-11-16 16:00:00 16.7 23 Oeste 39 Oeste 0 -- -- 40
2019-11-16 15:00:00 17 21 Oeste 37 Oeste 0 -- -- 41
2019-11-16 14:00:00 16.2 19 Oeste 36 Oeste 0 -- -- 44
2019-11-16 13:00:00 15.6 20 Oeste 36 Oeste 0 -- -- 43
2019-11-16 12:00:00 14.6 19 Noroeste 40 Noroeste 0 -- -- 42
2019-11-16 11:00:00 13.1 15 Noroeste 29 Oeste 0 -- -- 51
2019-11-16 10:00:00 10.2 11 Noroeste 27 Noroeste 0 -- -- 61
2019-11-16 09:00:00 7.6 13 Oeste 21 Noroeste 0 -- -- 70
2019-11-16 08:00:00 6.9 13 Noroeste 24 Noroeste 0 -- -- 73
2019-11-16 07:00:00 6.7 15 Oeste 28 Oeste 0 -- -- 73
2019-11-16 06:00:00 6.5 13 Oeste 19 Oeste 0 -- -- 72
2019-11-16 05:00:00 7.3 14 Oeste 22 Oeste 0 -- -- 69
2019-11-16 04:00:00 6.7 12 Oeste 17 Oeste 0 -- -- 69
2019-11-16 03:00:00 8.2 7 Oeste 17 Oeste 0 -- -- 64
2019-11-16 02:00:00 7.6 9 Oeste 17 Oeste 0 -- -- 65
2019-11-16 01:00:00 9.6 7 Noroeste 14 Noroeste 0 -- -- 61
2019-11-16 00:00:00 8.6 0 Calma 10 Oeste 0 -- -- 63
2019-11-15 23:00:00 9.4 6 Sudoeste 11 Oeste 0 -- -- 61
2019-11-15 22:00:00 10.6 7 Sudoeste 22 Oeste 0 -- -- 60
2019-11-15 21:00:00 11.4 12 Oeste 34 Oeste 0 -- -- 59
2019-11-15 20:00:00 11.6 16 Oeste 28 Oeste 0 -- -- 59
2019-11-15 19:00:00 12 16 Oeste 29 Oeste 0 -- -- 56
2019-11-15 18:00:00 13.3 19 Oeste 37 Noroeste 0 -- -- 51
2019-11-15 17:00:00 14.8 19 Noroeste 50 Oeste 0 -- -- 48
2019-11-15 16:00:00 15.1 28 Oeste 45 Oeste 0 -- -- 45
2019-11-15 15:00:00 15.3 25 Oeste 42 Oeste 0 -- -- 43
2019-11-15 14:00:00 15 24 Noroeste 47 Oeste 0 -- -- 45
2019-11-15 13:00:00 14.5 31 Oeste 49 Oeste 0 -- -- 42
2019-11-15 12:00:00 14.2 28 Oeste 48 Oeste 0 -- -- 49
2019-11-15 11:00:00 12.7 28 Oeste 51 Noroeste 0 -- -- 57
2019-11-15 10:00:00 11.9 30 Oeste 51 Noroeste 0 -- -- 61
2019-11-15 09:00:00 10.6 22 Noroeste 45 Noroeste 0 -- -- 66
2019-11-15 08:00:00 10.4 24 Oeste 45 Noroeste 0 -- -- 68
2019-11-15 07:00:00 10.7 25 Noroeste 44 Noroeste 0 -- -- 67
2019-11-15 06:00:00 10.9 24 Noroeste 42 Noroeste 0 -- -- 68
2019-11-15 05:00:00 11.3 21 Noroeste 42 Oeste 0 -- -- 74
2019-11-15 04:00:00 11.5 24 Oeste 37 Oeste 0 -- -- 76
2019-11-15 03:00:00 11.7 20 Noroeste 39 Noroeste 0 -- -- 78
2019-11-15 02:00:00 11.6 19 Oeste 31 Oeste 0 -- -- 79
2019-11-15 01:00:00 11.9 15 Oeste 35 Noroeste 0 -- -- 77
2019-11-15 00:00:00 11.9 20 Oeste 42 Oeste 0 -- -- 76